createdAt,value
2019-04-11T00:00:04.129Z,3.72
2019-04-11T00:01:03.950Z,3.57
2019-04-11T00:02:04.657Z,3.60
2019-04-11T00:03:04.950Z,3.59
2019-04-11T00:04:04.026Z,3.63
2019-04-11T00:05:04.356Z,3.59
2019-04-11T00:06:03.860Z,3.63
2019-04-11T00:07:03.809Z,3.70
2019-04-11T00:08:03.891Z,3.62
2019-04-11T00:09:03.716Z,3.63
2019-04-11T00:10:04.065Z,3.56
2019-04-11T00:11:03.920Z,3.53
2019-04-11T00:12:03.628Z,3.53
2019-04-11T00:13:14.270Z,3.56
2019-04-11T00:14:03.571Z,3.54
2019-04-11T00:15:04.356Z,3.46
2019-04-11T00:16:04.675Z,3.45
2019-04-11T00:17:03.748Z,3.45
2019-04-11T00:18:03.450Z,3.49
2019-04-11T00:19:03.551Z,3.44
2019-04-11T00:20:04.264Z,3.46
2019-04-11T00:21:04.455Z,3.35
2019-04-11T00:22:03.543Z,3.33
2019-04-11T00:23:03.468Z,3.37
2019-04-11T00:24:03.295Z,3.37
2019-04-11T00:25:03.386Z,3.28
2019-04-11T00:26:04.974Z,3.33
2019-04-11T00:27:04.487Z,3.22
2019-04-11T00:28:03.564Z,3.25
2019-04-11T00:29:03.927Z,3.17
2019-04-11T00:30:03.962Z,3.19
2019-04-11T00:31:04.228Z,3.34
2019-04-11T00:32:05.872Z,3.22
2019-04-11T00:33:03.311Z,3.13
2019-04-11T00:34:03.008Z,3.26
2019-04-11T00:35:03.698Z,3.17
2019-04-11T00:36:04.100Z,3.19
2019-04-11T00:37:03.130Z,3.15
2019-04-11T00:38:02.967Z,3.13
2019-04-11T00:39:03.505Z,3.12
2019-04-11T00:40:03.896Z,3.16
2019-04-11T00:41:03.732Z,3.17
2019-04-11T00:42:04.028Z,3.16
2019-04-11T00:43:03.172Z,3.22
2019-04-11T00:44:02.944Z,3.17
2019-04-11T00:45:03.340Z,3.17
2019-04-11T00:46:02.932Z,3.17
2019-04-11T00:47:02.850Z,3.13
2019-04-11T00:48:03.713Z,3.19
2019-04-11T00:49:02.669Z,3.12
2019-04-11T00:50:03.973Z,3.07
2019-04-11T00:51:03.527Z,3.07
2019-04-11T00:52:02.721Z,3.10
2019-04-11T00:53:03.573Z,3.02
2019-04-11T00:54:02.647Z,3.01
2019-04-11T00:55:03.004Z,2.99
2019-04-11T00:56:02.452Z,3.01
2019-04-11T00:57:02.652Z,3.05
2019-04-11T00:58:03.432Z,2.98
2019-04-11T00:59:02.627Z,2.95
2019-04-11T01:00:02.872Z,3.02
2019-04-11T01:01:02.338Z,2.98
2019-04-11T01:02:02.235Z,2.98
2019-04-11T01:03:03.373Z,3.04
2019-04-11T01:04:03.297Z,2.89
2019-04-11T01:05:03.487Z,3.02
2019-04-11T01:06:02.115Z,2.97
2019-04-11T01:07:02.745Z,3.02
2019-04-11T01:08:03.085Z,2.97
2019-04-11T01:09:02.152Z,2.81
2019-04-11T01:10:02.012Z,2.94
2019-04-11T01:11:02.223Z,2.83
2019-04-11T01:12:02.630Z,2.92
2019-04-11T01:13:02.015Z,2.89
2019-04-11T01:14:01.885Z,2.89
2019-04-11T01:15:03.116Z,2.84
2019-04-11T01:16:02.874Z,2.89
2019-04-11T01:17:01.834Z,2.76
2019-04-11T01:18:01.775Z,2.79
2019-04-11T01:19:02.602Z,2.74
2019-04-11T01:20:02.845Z,2.87
2019-04-11T01:21:02.079Z,2.89
2019-04-11T01:22:01.663Z,2.89
2019-04-11T01:23:02.769Z,2.68
2019-04-11T01:24:01.795Z,2.83
2019-04-11T01:25:01.735Z,2.69
2019-04-11T01:26:01.560Z,2.76
2019-04-11T01:27:01.561Z,2.83
2019-04-11T01:28:02.632Z,2.76
2019-04-11T01:29:01.481Z,2.79
2019-04-11T01:30:02.148Z,2.76
2019-04-11T01:31:01.415Z,2.74
2019-04-11T01:32:02.259Z,2.79
2019-04-11T01:33:02.412Z,2.80
2019-04-11T01:34:02.391Z,2.74
2019-04-11T01:35:01.395Z,2.73
2019-04-11T01:36:01.374Z,2.76
2019-04-11T01:37:01.703Z,2.69
2019-04-11T01:38:01.221Z,2.71
2019-04-11T01:39:01.285Z,2.77
2019-04-11T01:40:01.430Z,2.69
2019-04-11T01:41:02.359Z,2.65
2019-04-11T01:42:01.153Z,2.76
2019-04-11T01:43:01.936Z,2.77
2019-04-11T01:44:04.173Z,2.73
2019-04-11T01:45:01.145Z,2.79
2019-04-11T01:46:02.144Z,2.71
2019-04-11T01:47:00.962Z,2.77
2019-04-11T01:48:01.552Z,2.68
2019-04-11T01:49:00.914Z,2.66
2019-04-11T01:50:00.945Z,2.73
2019-04-11T01:51:01.201Z,2.61
2019-04-11T01:52:00.821Z,2.66
2019-04-11T01:53:00.862Z,2.59
2019-04-11T01:54:01.535Z,2.59
2019-04-11T01:55:02.042Z,2.62
2019-04-11T01:56:01.009Z,2.58
2019-04-11T01:57:01.391Z,2.62
2019-04-11T01:58:00.668Z,2.61
2019-04-11T01:59:00.703Z,2.55
2019-04-11T02:00:01.876Z,2.65
2019-04-11T02:01:02.072Z,2.62
2019-04-11T02:02:01.218Z,2.50
2019-04-11T02:03:01.234Z,2.53
2019-04-11T02:04:00.593Z,2.45
2019-04-11T02:05:00.819Z,2.51
2019-04-11T02:06:01.265Z,2.53
2019-04-11T02:07:00.425Z,2.55
2019-04-11T02:08:00.846Z,2.55
2019-04-11T02:09:00.345Z,2.51
2019-04-11T02:10:00.437Z,2.45
2019-04-11T02:11:01.271Z,2.43
2019-04-11T02:12:01.575Z,2.43
2019-04-11T02:13:00.228Z,2.45
2019-04-11T02:14:10.412Z,2.43
2019-04-11T02:15:00.172Z,2.36
2019-04-11T02:16:01.317Z,2.43
2019-04-11T02:17:01.148Z,2.47
2019-04-11T02:18:01.232Z,2.43
2019-04-11T02:19:00.058Z,2.43
2019-04-11T02:20:00.702Z,2.45
2019-04-11T02:21:00.980Z,2.44
2019-04-11T02:22:00.142Z,2.45
2019-04-11T02:23:00.086Z,2.37
2019-04-11T02:24:00.019Z,2.32
2019-04-11T02:25:00.583Z,2.30
2019-04-11T02:26:00.864Z,2.40
2019-04-11T02:27:00.760Z,2.29
2019-04-11T02:28:00.130Z,2.32
2019-04-11T02:28:59.779Z,2.36
2019-04-11T02:30:01.216Z,2.37
2019-04-11T02:31:00.177Z,2.27
2019-04-11T02:32:04.771Z,2.25
2019-04-11T02:33:00.337Z,2.23
2019-04-11T02:34:01.707Z,2.29
2019-04-11T02:35:01.941Z,2.36
2019-04-11T02:36:00.919Z,2.29
2019-04-11T02:37:00.481Z,2.23
2019-04-11T02:37:59.865Z,2.30
2019-04-11T02:39:03.650Z,2.25
2019-04-11T02:40:00.084Z,2.25
2019-04-11T02:41:01.067Z,2.22
2019-04-11T02:42:01.270Z,2.26
2019-04-11T02:43:00.160Z,2.20
2019-04-11T02:43:59.435Z,2.19
2019-04-11T02:45:13.216Z,2.20
2019-04-11T02:46:11.870Z,2.14
2019-04-11T02:47:06.800Z,2.07
2019-04-11T02:47:59.476Z,2.23
2019-04-11T02:49:01.044Z,2.09
2019-04-11T02:49:59.395Z,2.15
2019-04-11T02:51:00.912Z,2.14
2019-04-11T02:52:00.649Z,2.09
2019-04-11T02:53:00.829Z,2.04
2019-04-11T02:53:59.102Z,2.09
2019-04-11T02:54:59.109Z,2.05
2019-04-11T02:56:00.756Z,2.07
2019-04-11T02:57:00.642Z,2.00
2019-04-11T02:57:59.840Z,2.11
2019-04-11T02:58:59.956Z,2.00
2019-04-11T02:59:59.860Z,2.00
2019-04-11T03:01:01.000Z,2.05
2019-04-11T03:02:00.351Z,2.00
2019-04-11T03:02:59.865Z,2.07
2019-04-11T03:03:59.106Z,2.11
2019-04-11T03:05:00.361Z,2.02
2019-04-11T03:06:00.035Z,1.98
2019-04-11T03:07:00.115Z,2.08
2019-04-11T03:08:00.573Z,1.93
2019-04-11T03:08:59.321Z,2.05
2019-04-11T03:09:58.622Z,1.93
2019-04-11T03:10:59.506Z,2.00
2019-04-11T03:11:59.031Z,1.93
2019-04-11T03:12:59.030Z,1.93
2019-04-11T03:14:01.241Z,2.00
2019-04-11T03:15:14.374Z,1.88
2019-04-11T03:16:11.328Z,1.88
2019-04-11T03:17:08.190Z,1.89
2019-04-11T03:18:02.059Z,1.92
2019-04-11T03:19:13.276Z,1.90
2019-04-11T03:20:10.606Z,1.93
2019-04-11T03:21:04.552Z,1.88
2019-04-11T03:21:59.340Z,1.89
2019-04-11T03:23:04.913Z,1.89
2019-04-11T03:23:58.906Z,1.92
2019-04-11T03:25:00.143Z,1.83
2019-04-11T03:25:58.392Z,1.86
2019-04-11T03:27:00.410Z,1.81
2019-04-11T03:27:59.004Z,1.77
2019-04-11T03:28:59.690Z,1.81
2019-04-11T03:30:00.021Z,1.64
2019-04-11T03:31:30.385Z,1.83
2019-04-11T03:33:55.278Z,1.68
2019-04-11T03:35:02.904Z,1.67
2019-04-11T03:35:51.838Z,1.67
2019-04-11T03:36:50.938Z,1.65
2019-04-11T03:37:23.574Z,1.72
2019-04-11T03:38:18.448Z,1.63
2019-04-11T03:39:17.663Z,1.68
2019-04-11T03:40:19.019Z,1.64
2019-04-11T03:41:16.290Z,1.77
2019-04-11T03:42:15.679Z,1.72
2019-04-11T03:43:10.639Z,1.75
2019-04-11T03:44:06.603Z,1.70
2019-04-11T03:45:20.708Z,1.74
2019-04-11T03:46:15.953Z,1.68
2019-04-11T03:47:12.655Z,1.64
2019-04-11T03:48:10.826Z,1.64
2019-04-11T03:49:06.139Z,1.64
2019-04-11T03:50:03.830Z,1.64
2019-04-11T03:50:59.388Z,1.57
2019-04-11T03:51:58.929Z,1.56
2019-04-11T03:52:59.454Z,1.52
2019-04-11T03:53:58.914Z,1.60
2019-04-11T03:54:58.864Z,1.60
2019-04-11T03:55:57.297Z,1.56
2019-04-11T03:56:59.110Z,1.49
2019-04-11T03:57:59.199Z,1.56
2019-04-11T03:58:57.761Z,1.49
2019-04-11T03:59:58.605Z,1.54
2019-04-11T04:01:03.259Z,1.50
2019-04-11T04:01:59.076Z,1.49
2019-04-11T04:02:59.112Z,1.47
2019-04-11T04:03:58.222Z,1.46
2019-04-11T04:04:57.182Z,1.53
2019-04-11T04:05:59.154Z,1.47
2019-04-11T04:06:57.827Z,1.46
2019-04-11T04:07:58.204Z,1.50
2019-04-11T04:08:58.436Z,1.52
2019-04-11T04:09:58.322Z,1.49
2019-04-11T04:10:58.361Z,1.43
2019-04-11T04:11:58.950Z,1.52
2019-04-11T04:12:58.259Z,1.50
2019-04-11T04:13:56.871Z,1.44
2019-04-11T04:14:56.917Z,1.50
2019-04-11T04:16:10.430Z,1.49
2019-04-11T04:17:01.658Z,1.35
2019-04-11T04:17:57.324Z,1.38
2019-04-11T04:18:58.476Z,1.35
2019-04-11T04:19:56.795Z,1.35
2019-04-11T04:20:57.662Z,1.35
2019-04-11T04:21:57.543Z,1.43
2019-04-11T04:22:57.687Z,1.32
2019-04-11T04:23:59.288Z,1.28
2019-04-11T04:24:56.621Z,1.44
2019-04-11T04:25:56.438Z,1.38
2019-04-11T04:26:56.920Z,1.26
2019-04-11T04:27:56.853Z,1.42
2019-04-11T04:28:57.782Z,1.28
2019-04-11T04:29:59.575Z,1.31
2019-04-11T04:30:57.932Z,1.26
2019-04-11T04:31:57.282Z,1.26
2019-04-11T04:32:56.793Z,1.25
2019-04-11T04:33:57.712Z,1.35
2019-04-11T04:34:58.328Z,1.18
2019-04-11T04:35:57.889Z,1.21
2019-04-11T04:36:57.723Z,1.25
2019-04-11T04:37:56.920Z,1.26
2019-04-11T04:38:57.159Z,1.20
2019-04-11T04:40:13.537Z,1.28
2019-04-11T04:41:10.084Z,1.31
2019-04-11T04:42:03.746Z,1.26
2019-04-11T04:42:58.213Z,1.21
2019-04-11T04:43:57.524Z,1.18
2019-04-11T04:44:56.061Z,1.28
2019-04-11T04:46:11.616Z,1.18
2019-04-11T04:47:12.309Z,1.20
2019-04-11T04:48:02.580Z,1.28
2019-04-11T04:48:56.133Z,1.24
2019-04-11T04:49:57.101Z,1.21
2019-04-11T04:50:57.648Z,1.32
2019-04-11T04:51:56.170Z,1.18
2019-04-11T04:52:56.515Z,1.29
2019-04-11T04:53:56.185Z,1.31
2019-04-11T04:54:57.695Z,1.24
2019-04-11T04:55:57.271Z,1.18
2019-04-11T04:56:55.549Z,1.25
2019-04-11T04:57:56.006Z,1.26
2019-04-11T04:58:55.972Z,1.35
2019-04-11T04:59:55.640Z,1.32
2019-04-11T05:00:56.775Z,1.34
2019-04-11T05:01:55.930Z,1.32
2019-04-11T05:02:56.876Z,1.28
2019-04-11T05:03:56.361Z,1.29
2019-04-11T05:04:56.606Z,1.28
2019-04-11T05:05:55.489Z,1.24
2019-04-11T05:06:55.311Z,1.35
2019-04-11T05:07:56.310Z,1.21
2019-04-11T05:08:56.086Z,1.32
2019-04-11T05:09:56.677Z,1.34
2019-04-11T05:10:55.766Z,1.34
2019-04-11T05:11:55.272Z,1.38
2019-04-11T05:12:55.116Z,1.26
2019-04-11T05:13:56.603Z,1.31
2019-04-11T05:14:56.033Z,1.29
2019-04-11T05:16:07.179Z,1.35
2019-04-11T05:16:54.965Z,1.25
2019-04-11T05:17:55.262Z,1.25
2019-04-11T05:18:54.913Z,1.46
2019-04-11T05:19:55.011Z,1.28
2019-04-11T05:20:54.912Z,1.28
2019-04-11T05:21:54.923Z,1.28
2019-04-11T05:22:55.784Z,1.35
2019-04-11T05:23:55.602Z,1.39
2019-04-11T05:24:56.003Z,1.36
2019-04-11T05:25:55.064Z,1.49
2019-04-11T05:26:55.740Z,1.43
2019-04-11T05:27:55.904Z,1.36
2019-04-11T05:28:55.213Z,1.47
2019-04-11T05:29:54.650Z,1.52
2019-04-11T05:30:55.336Z,1.49
2019-04-11T05:31:54.717Z,1.49
2019-04-11T05:32:55.626Z,1.54
2019-04-11T05:33:54.580Z,1.57
2019-04-11T05:34:54.445Z,1.52
2019-04-11T05:36:12.224Z,1.68
2019-04-11T05:36:55.417Z,1.75
2019-04-11T05:37:54.407Z,1.71
2019-04-11T05:38:54.742Z,1.70
2019-04-11T05:39:54.568Z,1.77
2019-04-11T05:40:54.567Z,1.74
2019-04-11T05:41:54.527Z,1.74
2019-04-11T05:42:54.645Z,1.82
2019-04-11T05:43:54.236Z,1.79
2019-04-11T05:44:54.773Z,1.72
2019-04-11T05:45:55.231Z,1.88
2019-04-11T05:46:58.962Z,1.90
2019-04-11T05:47:56.679Z,1.95
2019-04-11T05:48:57.815Z,1.88
2019-04-11T05:49:54.708Z,1.86
2019-04-11T05:50:54.124Z,1.86
2019-04-11T05:51:56.754Z,1.98
2019-04-11T05:52:54.594Z,2.08
2019-04-11T05:53:55.542Z,2.04
2019-04-11T05:54:54.343Z,2.00
2019-04-11T05:55:53.910Z,2.04
2019-04-11T05:56:56.490Z,2.00
2019-04-11T05:57:54.415Z,2.08
2019-04-11T05:58:55.612Z,2.02
2019-04-11T05:59:54.819Z,2.15
2019-04-11T06:00:55.648Z,2.11
2019-04-11T06:01:54.877Z,2.12
2019-04-11T06:02:53.761Z,2.20
2019-04-11T06:03:53.694Z,2.26
2019-04-11T06:04:56.119Z,2.27
2019-04-11T06:05:58.296Z,2.26
2019-04-11T06:06:55.758Z,2.27
2019-04-11T06:07:56.007Z,2.27
2019-04-11T06:08:56.216Z,2.48
2019-04-11T06:09:54.574Z,2.41
2019-04-11T06:10:54.750Z,2.48
2019-04-11T06:11:55.770Z,2.53
2019-04-11T06:12:53.344Z,2.47
2019-04-11T06:13:53.328Z,2.59
2019-04-11T06:14:53.467Z,2.65
2019-04-11T06:15:53.585Z,2.63
2019-04-11T06:16:55.731Z,2.50
2019-04-11T06:17:54.448Z,2.65
2019-04-11T06:18:54.117Z,2.66
2019-04-11T06:19:55.675Z,2.59
2019-04-11T06:20:53.618Z,2.71
2019-04-11T06:21:53.209Z,2.74
2019-04-11T06:22:54.072Z,2.76
2019-04-11T06:23:53.865Z,2.73
2019-04-11T06:24:53.031Z,2.84
2019-04-11T06:25:53.404Z,2.80
2019-04-11T06:26:52.953Z,2.80
2019-04-11T06:27:53.691Z,2.80
2019-04-11T06:28:54.317Z,2.79
2019-04-11T06:29:53.024Z,2.81
2019-04-11T06:30:52.824Z,2.79
2019-04-11T06:31:52.939Z,2.94
2019-04-11T06:32:52.781Z,2.87
2019-04-11T06:33:53.123Z,2.89
2019-04-11T06:34:52.811Z,2.89
2019-04-11T06:35:52.676Z,2.99
2019-04-11T06:36:52.972Z,3.16
2019-04-11T06:37:52.659Z,3.31
2019-04-11T06:38:52.582Z,3.33
2019-04-11T06:39:53.643Z,3.31
2019-04-11T06:40:52.563Z,3.45
2019-04-11T06:41:52.752Z,3.37
2019-04-11T06:42:52.487Z,3.25
2019-04-11T06:43:52.445Z,3.35
2019-04-11T06:44:52.459Z,3.34
2019-04-11T06:45:52.457Z,3.34
2019-04-11T06:46:54.877Z,3.34
2019-04-11T06:47:53.552Z,3.31
2019-04-11T06:48:52.307Z,3.35
2019-04-11T06:49:53.039Z,3.44
2019-04-11T06:50:52.314Z,3.52
2019-04-11T06:51:52.549Z,3.52
2019-04-11T06:52:52.951Z,3.64
2019-04-11T06:53:52.625Z,3.62
2019-04-11T06:54:52.456Z,3.75
2019-04-11T06:55:53.234Z,3.75
2019-04-11T06:56:52.304Z,3.71
2019-04-11T06:57:52.078Z,3.68
2019-04-11T06:58:53.593Z,3.72
2019-04-11T06:59:52.506Z,3.64
2019-04-11T07:00:51.941Z,3.71
2019-04-11T07:01:52.824Z,3.74
2019-04-11T07:02:52.842Z,3.88
2019-04-11T07:03:51.854Z,3.84
2019-04-11T07:04:51.865Z,3.93
2019-04-11T07:05:53.083Z,3.95
2019-04-11T07:06:51.798Z,3.98
2019-04-11T07:07:51.840Z,4.07
2019-04-11T07:08:51.743Z,4.07
2019-04-11T07:09:51.907Z,4.00
2019-04-11T07:10:51.704Z,4.17
2019-04-11T07:11:52.670Z,4.25
2019-04-11T07:12:54.398Z,4.44
2019-04-11T07:13:51.667Z,4.44
2019-04-11T07:14:51.534Z,4.50
2019-04-11T07:15:52.749Z,4.59
2019-04-11T07:17:01.382Z,4.72
2019-04-11T07:17:52.458Z,4.69
2019-04-11T07:18:52.725Z,4.86
2019-04-11T07:19:51.565Z,4.84
2019-04-11T07:20:52.390Z,4.93
2019-04-11T07:21:52.407Z,4.96
2019-04-11T07:22:51.407Z,5.02
2019-04-11T07:23:51.551Z,4.96
2019-04-11T07:24:51.260Z,5.05
2019-04-11T07:25:51.764Z,5.06
2019-04-11T07:26:52.147Z,5.04
2019-04-11T07:27:51.155Z,5.01
2019-04-11T07:28:52.276Z,5.08
2019-04-11T07:29:51.107Z,5.22
2019-04-11T07:30:51.161Z,5.17
2019-04-11T07:31:51.030Z,5.30
2019-04-11T07:32:51.079Z,5.29
2019-04-11T07:33:51.855Z,5.26
2019-04-11T07:34:52.598Z,5.32
2019-04-11T07:35:50.922Z,5.37
2019-04-11T07:36:51.001Z,5.35
2019-04-11T07:37:51.109Z,5.47
2019-04-11T07:38:52.265Z,5.55
2019-04-11T07:39:51.621Z,5.55
2019-04-11T07:40:51.906Z,5.59
2019-04-11T07:41:52.086Z,5.58
2019-04-11T07:42:52.848Z,5.56
2019-04-11T07:43:50.696Z,5.55
2019-04-11T07:44:51.716Z,5.59
2019-04-11T07:45:51.255Z,5.60
2019-04-11T07:46:51.578Z,5.58
2019-04-11T07:47:50.633Z,5.69
2019-04-11T07:48:50.685Z,5.67
2019-04-11T07:49:53.444Z,5.87
2019-04-11T07:50:51.578Z,5.81
2019-04-11T07:51:50.798Z,5.87
2019-04-11T07:52:51.359Z,5.90
2019-04-11T07:53:50.461Z,5.87
2019-04-11T07:54:51.425Z,5.84
2019-04-11T07:55:51.028Z,5.87
2019-04-11T07:56:50.681Z,5.95
2019-04-11T07:57:50.441Z,6.02
2019-04-11T07:58:50.264Z,6.05
2019-04-11T07:59:51.217Z,6.16
2019-04-11T08:00:52.918Z,6.19
2019-04-11T08:01:50.624Z,6.24
2019-04-11T08:02:50.183Z,6.20
2019-04-11T08:03:51.261Z,6.10
2019-04-11T08:04:50.066Z,6.25
2019-04-11T08:05:50.249Z,6.19
2019-04-11T08:06:50.057Z,6.20
2019-04-11T08:07:51.351Z,6.30
2019-04-11T08:08:49.967Z,6.36
2019-04-11T08:09:50.634Z,6.35
2019-04-11T08:10:50.547Z,6.39
2019-04-11T08:11:50.060Z,6.33
2019-04-11T08:12:49.972Z,6.43
2019-04-11T08:13:53.125Z,6.38
2019-04-11T08:14:50.986Z,6.40
2019-04-11T08:15:50.240Z,6.45
2019-04-11T08:16:49.724Z,6.51
2019-04-11T08:17:50.125Z,6.51
2019-04-11T08:18:50.939Z,6.57
2019-04-11T08:19:51.121Z,6.58
2019-04-11T08:20:49.834Z,6.65
2019-04-11T08:21:50.404Z,6.65
2019-04-11T08:22:49.692Z,6.71
2019-04-11T08:23:49.893Z,6.73
2019-04-11T08:24:49.485Z,6.78
2019-04-11T08:25:49.590Z,6.86
2019-04-11T08:26:50.474Z,6.82
2019-04-11T08:27:57.871Z,6.93
2019-04-11T08:28:59.677Z,7.05
2019-04-11T08:29:50.562Z,7.00
2019-04-11T08:30:49.316Z,6.99
2019-04-11T08:31:49.413Z,7.07
2019-04-11T08:32:49.811Z,7.01
2019-04-11T08:33:51.389Z,7.15
2019-04-11T08:34:49.281Z,7.24
2019-04-11T08:35:52.967Z,7.29
2019-04-11T08:36:50.484Z,7.30
2019-04-11T08:37:49.262Z,7.29
2019-04-11T08:38:49.075Z,7.47
2019-04-11T08:39:49.139Z,7.48
2019-04-11T08:40:49.210Z,7.54
2019-04-11T08:41:49.666Z,7.66
2019-04-11T08:42:48.969Z,7.77
2019-04-11T08:43:49.100Z,7.58
2019-04-11T08:44:50.127Z,7.60
2019-04-11T08:45:48.998Z,7.67
2019-04-11T08:46:48.954Z,7.66
2019-04-11T08:47:52.679Z,7.63
2019-04-11T08:48:49.019Z,7.57
2019-04-11T08:49:50.070Z,7.55
2019-04-11T08:50:48.739Z,7.51
2019-04-11T08:51:49.588Z,7.57
2019-04-11T08:52:48.686Z,7.66
2019-04-11T08:53:49.017Z,7.73
2019-04-11T08:54:48.625Z,7.77
2019-04-11T08:55:55.328Z,7.79
2019-04-11T08:56:49.452Z,7.88
2019-04-11T08:57:50.561Z,7.86
2019-04-11T08:58:49.015Z,7.99
2019-04-11T08:59:49.389Z,7.96
2019-04-11T09:00:48.956Z,8.03
2019-04-11T09:01:48.530Z,8.20
2019-04-11T09:02:49.174Z,8.27
2019-04-11T09:04:01.338Z,8.28
2019-04-11T09:04:48.346Z,8.18
2019-04-11T09:05:49.287Z,8.20
2019-04-11T09:06:49.212Z,8.29
2019-04-11T09:07:48.329Z,8.24
2019-04-11T09:08:48.899Z,8.25
2019-04-11T09:09:48.360Z,8.28
2019-04-11T09:10:49.284Z,8.31
2019-04-11T09:11:49.259Z,8.36
2019-04-11T09:12:48.924Z,8.52
2019-04-11T09:13:49.248Z,8.49
2019-04-11T09:14:48.563Z,8.65
2019-04-11T09:15:48.840Z,8.64
2019-04-11T09:16:48.079Z,8.73
2019-04-11T09:17:56.600Z,8.89
2019-04-11T09:18:48.142Z,8.80
2019-04-11T09:19:49.324Z,8.73
2019-04-11T09:20:47.894Z,8.63
2019-04-11T09:21:48.717Z,8.52
2019-04-11T09:22:48.857Z,8.43
2019-04-11T09:23:48.882Z,8.50
2019-04-11T09:24:48.544Z,8.43
2019-04-11T09:25:50.472Z,8.46
2019-04-11T09:26:47.917Z,8.61
2019-04-11T09:27:48.899Z,8.55
2019-04-11T09:28:47.668Z,8.63
2019-04-11T09:29:48.400Z,8.85
2019-04-11T09:30:47.612Z,9.01
2019-04-11T09:31:49.416Z,9.16
2019-04-11T09:32:48.585Z,9.10
2019-04-11T09:33:47.649Z,9.08
2019-04-11T09:34:48.188Z,9.03
2019-04-11T09:35:47.616Z,9.03
2019-04-11T09:36:47.445Z,9.01
2019-04-11T09:37:47.426Z,9.00
2019-04-11T09:38:48.607Z,9.03
2019-04-11T09:39:47.665Z,8.85
2019-04-11T09:40:47.960Z,8.82
2019-04-11T09:41:47.378Z,8.91
2019-04-11T09:42:47.282Z,8.88
2019-04-11T09:43:48.352Z,8.86
2019-04-11T09:44:47.271Z,8.82
2019-04-11T09:45:47.972Z,8.80
2019-04-11T09:46:47.214Z,8.83
2019-04-11T09:47:47.721Z,8.86
2019-04-11T09:48:48.401Z,8.86
2019-04-11T09:49:47.308Z,8.88
2019-04-11T09:50:47.176Z,8.79
2019-04-11T09:51:47.779Z,8.70
2019-04-11T09:52:47.411Z,8.64
2019-04-11T09:53:47.221Z,8.68
2019-04-11T09:54:46.982Z,8.67
2019-04-11T09:55:47.907Z,8.54
2019-04-11T09:56:47.218Z,8.63
2019-04-11T09:57:48.156Z,8.70
2019-04-11T09:58:47.637Z,8.78
2019-04-11T09:59:47.649Z,8.76
2019-04-11T10:00:47.367Z,8.94
2019-04-11T10:01:46.754Z,8.93
2019-04-11T10:02:46.839Z,9.03
2019-04-11T10:03:46.699Z,9.12
2019-04-11T10:04:48.007Z,9.15
2019-04-11T10:05:48.219Z,9.40
2019-04-11T10:06:46.642Z,9.55
2019-04-11T10:07:46.589Z,9.49
2019-04-11T10:08:46.964Z,9.45
2019-04-11T10:09:46.534Z,9.45
2019-04-11T10:10:46.690Z,9.41
2019-04-11T10:11:46.606Z,9.45
2019-04-11T10:12:46.550Z,9.55
2019-04-11T10:13:46.410Z,9.75
2019-04-11T10:14:46.386Z,9.78
2019-04-11T10:15:47.307Z,9.85
2019-04-11T10:16:46.617Z,9.85
2019-04-11T10:17:46.484Z,9.80
2019-04-11T10:18:47.300Z,9.88
2019-04-11T10:19:46.501Z,9.95
2019-04-11T10:20:46.223Z,10.13
2019-04-11T10:21:46.229Z,10.10
2019-04-11T10:22:46.175Z,10.09
2019-04-11T10:23:47.094Z,10.29
2019-04-11T10:24:46.377Z,10.29
2019-04-11T10:25:46.096Z,10.29
2019-04-11T10:26:46.054Z,10.25
2019-04-11T10:27:47.032Z,10.02
2019-04-11T10:28:46.030Z,10.04
2019-04-11T10:29:46.191Z,10.02
2019-04-11T10:30:46.132Z,10.07
2019-04-11T10:31:46.493Z,10.10
2019-04-11T10:32:45.890Z,10.09
2019-04-11T10:33:46.839Z,9.86
2019-04-11T10:34:45.926Z,9.83
2019-04-11T10:35:46.221Z,9.88
2019-04-11T10:36:45.941Z,9.85
2019-04-11T10:37:45.844Z,10.04
2019-04-11T10:38:46.811Z,9.88
2019-04-11T10:39:45.894Z,9.83
2019-04-11T10:40:45.682Z,9.92
2019-04-11T10:41:46.117Z,9.85
2019-04-11T10:42:46.558Z,10.10
2019-04-11T10:43:45.714Z,10.11
2019-04-11T10:44:45.776Z,10.14
2019-04-11T10:45:45.547Z,10.14
2019-04-11T10:46:45.498Z,10.06
2019-04-11T10:47:45.493Z,10.06
2019-04-11T10:48:47.003Z,10.22
2019-04-11T10:49:46.243Z,10.17
2019-04-11T10:50:46.541Z,10.07
2019-04-11T10:51:45.605Z,9.83
2019-04-11T10:52:46.651Z,9.88
2019-04-11T10:53:45.284Z,9.78
2019-04-11T10:54:45.276Z,9.81
2019-04-11T10:55:46.162Z,9.80
2019-04-11T10:56:45.360Z,9.73
2019-04-11T10:57:46.558Z,9.75
2019-04-11T10:58:45.179Z,9.81
2019-04-11T10:59:45.171Z,9.93
2019-04-11T11:00:45.308Z,10.11
2019-04-11T11:01:46.343Z,10.11
2019-04-11T11:02:45.322Z,10.34
2019-04-11T11:03:45.264Z,10.24
2019-04-11T11:04:45.179Z,10.32
2019-04-11T11:05:45.089Z,10.43
2019-04-11T11:06:45.097Z,10.60
2019-04-11T11:07:45.057Z,10.68
2019-04-11T11:08:45.833Z,10.80
2019-04-11T11:09:46.281Z,10.69
2019-04-11T11:10:45.707Z,10.78
2019-04-11T11:11:46.206Z,10.76
2019-04-11T11:12:45.488Z,10.73
2019-04-11T11:13:45.772Z,10.44
2019-04-11T11:14:45.048Z,10.58
2019-04-11T11:15:44.910Z,10.35
2019-04-11T11:16:45.626Z,10.32
2019-04-11T11:18:05.595Z,10.42
2019-04-11T11:19:15.554Z,10.34
2019-04-11T11:19:57.335Z,10.29
2019-04-11T11:20:50.132Z,10.22
2019-04-11T11:21:45.113Z,10.34
2019-04-11T11:22:44.501Z,10.43
2019-04-11T11:23:49.102Z,10.52
2019-04-11T11:24:44.425Z,10.66
2019-04-11T11:25:48.343Z,10.98
2019-04-11T11:26:44.380Z,11.02
2019-04-11T11:27:44.360Z,11.19
2019-04-11T11:28:44.337Z,11.38
2019-04-11T11:29:45.347Z,11.84
2019-04-11T11:30:44.761Z,11.87
2019-04-11T11:31:44.842Z,11.51
2019-04-11T11:32:45.302Z,11.54
2019-04-11T11:33:44.861Z,11.56
2019-04-11T11:34:44.572Z,11.69
2019-04-11T11:35:44.222Z,11.60
2019-04-11T11:36:44.112Z,11.54
2019-04-11T11:37:45.145Z,11.24
2019-04-11T11:38:44.182Z,10.88
2019-04-11T11:39:44.041Z,10.78
2019-04-11T11:40:44.759Z,10.60
2019-04-11T11:41:44.775Z,10.44
2019-04-11T11:42:44.129Z,10.46
2019-04-11T11:43:43.912Z,10.55
2019-04-11T11:44:44.701Z,10.51
2019-04-11T11:45:47.807Z,10.70
2019-04-11T11:46:44.621Z,10.76
2019-04-11T11:47:44.823Z,10.86
2019-04-11T11:48:46.366Z,10.78
2019-04-11T11:49:51.906Z,10.76
2019-04-11T11:50:44.651Z,10.90
2019-04-11T11:51:43.710Z,10.87
2019-04-11T11:52:44.002Z,10.93
2019-04-11T11:53:43.682Z,10.62
2019-04-11T11:54:44.020Z,10.51
2019-04-11T11:55:43.602Z,10.62
2019-04-11T11:56:44.449Z,10.70
2019-04-11T11:57:44.746Z,10.69
2019-04-11T11:58:45.237Z,10.86
2019-04-11T11:59:44.798Z,10.83
2019-04-11T12:00:46.267Z,10.94
2019-04-11T12:01:46.488Z,10.84
2019-04-11T12:02:44.343Z,10.88
2019-04-11T12:03:44.448Z,10.81
2019-04-11T12:04:44.311Z,10.76
2019-04-11T12:05:47.056Z,10.69
2019-04-11T12:06:43.259Z,10.80
2019-04-11T12:07:43.354Z,10.78
2019-04-11T12:08:46.655Z,10.72
2019-04-11T12:09:44.642Z,10.65
2019-04-11T12:10:43.832Z,10.57
2019-04-11T12:11:43.276Z,10.57
2019-04-11T12:12:44.179Z,10.63
2019-04-11T12:13:43.303Z,10.81
2019-04-11T12:14:44.944Z,10.88
2019-04-11T12:15:43.516Z,11.09
2019-04-11T12:16:43.940Z,11.21
2019-04-11T12:17:43.121Z,11.13
2019-04-11T12:18:46.705Z,10.98
2019-04-11T12:19:52.310Z,10.91
2019-04-11T12:20:44.804Z,10.87
2019-04-11T12:21:43.284Z,10.66
2019-04-11T12:22:42.840Z,10.55
2019-04-11T12:23:52.988Z,10.63
2019-04-11T12:24:43.038Z,10.51
2019-04-11T12:25:42.789Z,10.70
2019-04-11T12:26:43.198Z,10.76
2019-04-11T12:27:43.626Z,10.83
2019-04-11T12:28:43.649Z,10.84
2019-04-11T12:29:45.580Z,10.88
2019-04-11T12:30:43.973Z,10.80
2019-04-11T12:31:42.559Z,10.87
2019-04-11T12:32:42.686Z,10.70
2019-04-11T12:33:43.684Z,10.65
2019-04-11T12:34:45.083Z,10.94
2019-04-11T12:35:42.456Z,11.17
2019-04-11T12:36:44.653Z,11.24
2019-04-11T12:37:43.373Z,11.30
2019-04-11T12:38:42.378Z,11.36
2019-04-11T12:39:42.338Z,11.51
2019-04-11T12:40:42.320Z,11.75
2019-04-11T12:41:42.285Z,11.94
2019-04-11T12:42:42.262Z,12.07
2019-04-11T12:43:42.237Z,11.98
2019-04-11T12:44:42.346Z,11.84
2019-04-11T12:45:42.169Z,11.51
2019-04-11T12:46:42.171Z,11.30
2019-04-11T12:47:42.124Z,11.16
2019-04-11T12:48:43.137Z,11.02
2019-04-11T12:49:52.431Z,11.05
2019-04-11T12:50:42.030Z,11.02
2019-04-11T12:51:42.015Z,10.95
2019-04-11T12:52:42.061Z,10.91
2019-04-11T12:53:42.102Z,10.95
2019-04-11T12:54:41.926Z,10.86
2019-04-11T12:55:41.906Z,10.91
2019-04-11T12:56:41.873Z,10.93
2019-04-11T12:57:41.980Z,10.80
2019-04-11T12:58:41.815Z,10.58
2019-04-11T12:59:41.934Z,10.62
2019-04-11T13:00:41.775Z,10.52
2019-04-11T13:01:41.846Z,10.62
2019-04-11T13:02:41.692Z,10.76
2019-04-11T13:03:41.791Z,10.78
2019-04-11T13:04:44.117Z,10.81
2019-04-11T13:05:44.190Z,10.81
2019-04-11T13:06:41.616Z,10.84
2019-04-11T13:07:41.698Z,10.94
2019-04-11T13:08:41.551Z,10.88
2019-04-11T13:09:43.818Z,10.95
2019-04-11T13:10:41.480Z,11.09
2019-04-11T13:11:41.612Z,11.11
2019-04-11T13:12:41.463Z,11.02
2019-04-11T13:13:41.529Z,10.87